Time,TemperatureF,DewpointF,PressureIn,WindDirection,WindDirectionDegrees,WindSpeedMPH,WindSpeedGustMPH,Humidity,HourlyPrecipIn,Conditions,Clouds,dailyrainin,SoftwareType,DateUTC
2013-12-10 00:01:00,9.9,-1.3,29.63,SW,225,17.0,19.0,60,0.00,,,0.00,meteohub,2013-12-10 06:01:00,
2013-12-10 00:06:00,9.9,-1.3,29.63,SW,225,15.0,19.0,60,0.00,,,0.00,meteohub,2013-12-10 06:06:00,
2013-12-10 00:11:00,10.0,-1.1,29.63,SW,225,17.0,17.0,60,0.00,,,0.00,meteohub,2013-12-10 06:11:00,
2013-12-10 00:16:00,10.2,-0.9,29.63,SW,225,14.0,17.0,60,0.00,,,0.00,meteohub,2013-12-10 06:16:00,
2013-12-10 00:22:00,10.2,-0.9,29.62,West,270,12.0,17.0,60,0.00,,,0.00,meteohub,2013-12-10 06:22:00,
2013-12-10 00:27:00,10.6,0.9,29.62,NW,315,17.0,17.0,64,0.00,,,0.00,meteohub,2013-12-10 06:27:00,
2013-12-10 00:32:00,10.9,1.4,29.62,West,270,17.0,17.0,65,0.00,,,0.00,meteohub,2013-12-10 06:32:00,
2013-12-10 00:37:00,11.1,1.6,29.62,SW,225,15.0,17.0,65,0.00,,,0.00,meteohub,2013-12-10 06:37:00,
2013-12-10 00:42:00,11.5,1.9,29.62,NW,315,14.0,17.0,65,0.00,,,0.00,meteohub,2013-12-10 06:42:00,
2013-12-10 00:47:00,11.8,2.3,29.61,SW,225,15.0,17.0,65,0.00,,,0.00,meteohub,2013-12-10 06:47:00,
2013-12-10 00:53:00,12.2,2.7,29.61,SW,225,15.0,17.0,65,0.00,,,0.00,meteohub,2013-12-10 06:53:00,
2013-12-10 00:58:00,12.6,3.0,29.61,West,270,17.0,17.0,65,0.00,,,0.00,meteohub,2013-12-10 06:58:00,
2013-12-10 01:03:00,13.3,4.1,29.62,West,270,20.0,20.0,66,0.00,,,0.00,meteohub,2013-12-10 07:03:00,
2013-12-10 01:08:00,14.2,5.0,29.62,West,270,22.0,24.0,66,0.00,,,0.00,meteohub,2013-12-10 07:08:00,
2013-12-10 01:13:00,14.7,5.4,29.61,West,270,22.0,24.0,66,0.00,,,0.00,meteohub,2013-12-10 07:13:00,
2013-12-10 01:18:00,15.1,6.1,29.62,West,270,22.0,24.0,67,0.00,,,0.00,meteohub,2013-12-10 07:18:00,
2013-12-10 01:23:00,15.3,6.3,29.61,West,270,25.0,25.0,67,0.00,,,0.00,meteohub,2013-12-10 07:23:00,
2013-12-10 01:29:00,15.6,6.6,29.61,West,270,28.0,28.0,67,0.00,,,0.00,meteohub,2013-12-10 07:29:00,
2013-12-10 01:34:00,16.0,7.0,29.61,West,270,30.0,30.0,67,0.00,,,0.00,meteohub,2013-12-10 07:34:00,
2013-12-10 01:39:00,16.2,7.5,29.61,West,270,34.0,34.0,68,0.00,,,0.00,meteohub,2013-12-10 07:39:00,
2013-12-10 01:44:00,16.3,7.7,29.61,West,270,29.0,30.0,68,0.00,,,0.00,meteohub,2013-12-10 07:44:00,
2013-12-10 01:49:00,16.5,7.9,29.62,West,270,33.0,34.0,68,0.00,,,0.00,meteohub,2013-12-10 07:49:00,
2013-12-10 01:54:00,16.7,8.1,29.63,West,270,27.0,34.0,68,0.00,,,0.00,meteohub,2013-12-10 07:54:00,
2013-12-10 02:00:00,17.1,8.2,29.63,West,270,27.0,33.0,68,0.00,,,0.00,meteohub,2013-12-10 08:00:00,
2013-12-10 02:05:00,16.2,7.5,29.64,NW,315,34.0,36.0,68,0.00,,,0.00,meteohub,2013-12-10 08:05:00,
2013-12-10 02:10:00,14.9,6.6,29.65,NW,315,33.0,36.0,69,0.00,,,0.00,meteohub,2013-12-10 08:10:00,
2013-12-10 02:15:00,14.4,6.1,29.65,NW,315,32.0,38.0,69,0.00,,,0.00,meteohub,2013-12-10 08:15:00,
2013-12-10 02:20:00,13.6,5.4,29.66,NW,315,41.0,41.0,69,0.00,,,0.00,meteohub,2013-12-10 08:20:00,
2013-12-10 02:26:00,12.2,3.7,29.66,NW,315,40.0,43.0,68,0.00,,,0.00,meteohub,2013-12-10 08:26:00,
2013-12-10 02:31:00,11.5,3.6,29.67,NW,315,39.0,43.0,70,0.00,,,0.00,meteohub,2013-12-10 08:31:00,
2013-12-10 02:36:00,11.1,3.2,29.68,NW,315,34.0,43.0,70,0.00,,,0.00,meteohub,2013-12-10 08:36:00,
2013-12-10 02:41:00,10.9,3.0,29.69,NW,315,33.0,43.0,70,0.00,,,0.00,meteohub,2013-12-10 08:41:00,
2013-12-10 02:46:00,10.6,2.7,29.69,West,270,35.0,43.0,70,0.00,,,0.00,meteohub,2013-12-10 08:46:00,
2013-12-10 02:51:00,10.4,2.5,29.70,NW,315,39.0,45.0,70,0.00,,,0.00,meteohub,2013-12-10 08:51:00,
2013-12-10 02:57:00,9.7,0.7,29.70,West,270,34.0,45.0,66,0.00,,,0.00,meteohub,2013-12-10 08:57:00,
2013-12-10 03:02:00,9.3,0.3,29.70,NW,315,34.0,45.0,66,0.00,,,0.00,meteohub,2013-12-10 09:02:00,
2013-12-10 03:05:00,9.1,0.1,29.71,West,270,34.0,45.0,66,0.00,,,0.00,meteohub,2013-12-10 09:05:00,
2013-12-10 03:10:00,9.0,-0.4,29.72,NW,315,36.0,41.0,65,0.00,,,0.00,meteohub,2013-12-10 09:10:00,
2013-12-10 03:15:00,9.0,-0.4,29.73,NW,315,30.0,41.0,65,0.00,,,0.00,meteohub,2013-12-10 09:15:00,
2013-12-10 03:20:00,8.8,-0.6,29.73,NW,315,37.0,39.0,65,0.00,,,0.00,meteohub,2013-12-10 09:20:00,
2013-12-10 03:25:00,8.4,-0.6,29.74,West,270,39.0,40.0,66,0.00,,,0.00,meteohub,2013-12-10 09:25:00,
2013-12-10 03:30:00,8.1,-0.9,29.74,West,270,35.0,40.0,66,0.00,,,0.00,meteohub,2013-12-10 09:30:00,
2013-12-10 03:35:00,8.2,-0.8,29.74,NW,315,36.0,40.0,66,0.00,,,0.00,meteohub,2013-12-10 09:35:00,
2013-12-10 03:40:00,8.1,-0.9,29.75,West,270,41.0,41.0,66,0.00,,,0.00,meteohub,2013-12-10 09:40:00,
2013-12-10 03:46:00,7.5,-1.5,29.75,NW,315,36.0,46.0,66,0.00,,,0.00,meteohub,2013-12-10 09:46:00,
2013-12-10 03:51:00,7.3,-1.7,29.76,West,270,32.0,46.0,66,0.00,,,0.00,meteohub,2013-12-10 09:51:00,
2013-12-10 03:56:00,7.0,-2.4,29.76,West,270,36.0,46.0,65,0.00,,,0.00,meteohub,2013-12-10 09:56:00,
2013-12-10 04:01:00,6.6,-2.4,29.77,West,270,29.0,36.0,66,0.00,,,0.00,meteohub,2013-12-10 10:01:00,
2013-12-10 04:06:00,6.3,-2.7,29.77,West,270,39.0,39.0,66,0.00,,,0.00,meteohub,2013-12-10 10:06:00,
2013-12-10 04:11:00,6.1,-2.9,29.77,West,270,34.0,40.0,66,0.00,,,0.00,meteohub,2013-12-10 10:11:00,
2013-12-10 04:16:00,6.1,-2.9,29.77,West,270,34.0,40.0,66,0.00,,,0.00,meteohub,2013-12-10 10:16:00,
2013-12-10 04:21:00,5.9,-2.9,29.78,NW,315,34.0,40.0,66,0.00,,,0.00,meteohub,2013-12-10 10:21:00,
2013-12-10 04:26:00,5.9,-2.9,29.78,NW,315,37.0,40.0,66,0.00,,,0.00,meteohub,2013-12-10 10:26:00,
2013-12-10 04:32:00,5.5,-3.3,29.78,NW,315,35.0,43.0,66,0.00,,,0.00,meteohub,2013-12-10 10:32:00,
2013-12-10 04:37:00,5.2,-4.0,29.79,NW,315,39.0,43.0,65,0.00,,,0.00,meteohub,2013-12-10 10:37:00,
2013-12-10 04:42:00,4.6,-4.2,29.80,NW,315,41.0,43.0,66,0.00,,,0.00,meteohub,2013-12-10 10:42:00,
2013-12-10 04:47:00,4.1,-4.7,29.80,NW,315,29.0,43.0,66,0.00,,,0.00,meteohub,2013-12-10 10:47:00,
2013-12-10 04:52:00,3.9,-4.9,29.81,NW,315,38.0,43.0,66,0.00,,,0.00,meteohub,2013-12-10 10:52:00,
2013-12-10 04:57:00,3.7,-5.1,29.81,West,270,34.0,41.0,66,0.00,,,0.00,meteohub,2013-12-10 10:57:00,
2013-12-10 05:03:00,3.4,-5.8,29.81,NW,315,41.0,44.0,65,0.00,,,0.00,meteohub,2013-12-10 11:03:00,
2013-12-10 05:08:00,3.0,-5.8,29.82,NW,315,34.0,44.0,66,0.00,,,0.00,meteohub,2013-12-10 11:08:00,
2013-12-10 05:13:00,2.8,-6.0,29.82,NW,315,32.0,41.0,66,0.00,,,0.00,meteohub,2013-12-10 11:13:00,
2013-12-10 05:18:00,2.7,-6.2,29.82,NW,315,33.0,41.0,66,0.00,,,0.00,meteohub,2013-12-10 11:18:00,
2013-12-10 05:23:00,2.7,-6.2,29.83,NW,315,29.0,39.0,66,0.00,,,0.00,meteohub,2013-12-10 11:23:00,
2013-12-10 05:28:00,2.5,-6.3,29.83,NW,315,41.0,41.0,66,0.00,,,0.00,meteohub,2013-12-10 11:28:00,
2013-12-10 05:33:00,2.1,-6.7,29.83,NW,315,34.0,41.0,66,0.00,,,0.00,meteohub,2013-12-10 11:33:00,
2013-12-10 05:38:00,1.9,-6.9,29.84,NW,315,32.0,41.0,66,0.00,,,0.00,meteohub,2013-12-10 11:38:00,
2013-12-10 05:43:00,1.8,-7.2,29.85,NW,315,35.0,41.0,65,0.00,,,0.00,meteohub,2013-12-10 11:43:00,
2013-12-10 05:48:00,1.6,-7.4,29.84,NW,315,42.0,42.0,65,0.00,,,0.00,meteohub,2013-12-10 11:48:00,
2013-12-10 05:54:00,1.4,-7.6,29.85,NW,315,34.0,41.0,65,0.00,,,0.00,meteohub,2013-12-10 11:54:00,
2013-12-10 05:59:00,1.2,-9.0,29.85,NW,315,31.0,42.0,61,0.00,,,0.00,meteohub,2013-12-10 11:59:00,
2013-12-10 06:04:00,1.0,-9.2,29.86,NW,315,27.0,42.0,61,0.00,,,0.00,meteohub,2013-12-10 12:04:00,
2013-12-10 06:09:00,1.2,-9.0,29.86,NW,315,27.0,39.0,61,0.00,,,0.00,meteohub,2013-12-10 12:09:00,
2013-12-10 06:14:00,0.9,-9.4,29.86,NW,315,34.0,35.0,61,0.00,,,0.00,meteohub,2013-12-10 12:14:00,
2013-12-10 06:19:00,0.5,-9.8,29.87,NW,315,30.0,35.0,61,0.00,,,0.00,meteohub,2013-12-10 12:19:00,
2013-12-10 06:25:00,0.3,-10.3,29.87,NW,315,31.0,35.0,60,0.00,,,0.00,meteohub,2013-12-10 12:25:00,
2013-12-10 06:30:00,0.3,-10.3,29.88,NW,315,27.0,35.0,60,0.00,,,0.00,meteohub,2013-12-10 12:30:00,
2013-12-10 06:35:00,0.1,-10.5,29.88,NW,315,36.0,36.0,60,0.00,,,0.00,meteohub,2013-12-10 12:35:00,
2013-12-10 06:40:00,0.0,-10.7,29.89,West,270,32.0,38.0,60,0.00,,,0.00,meteohub,2013-12-10 12:40:00,
2013-12-10 06:45:00,0.0,-10.7,29.89,West,270,25.0,38.0,60,0.00,,,0.00,meteohub,2013-12-10 12:45:00,
2013-12-10 06:50:00,0.1,-10.5,29.88,NW,315,21.0,37.0,60,0.00,,,0.00,meteohub,2013-12-10 12:50:00,
2013-12-10 06:55:00,0.0,-10.7,29.88,NW,315,21.0,33.0,60,0.00,,,0.00,meteohub,2013-12-10 12:55:00,
2013-12-10 07:00:00,0.0,-10.7,29.90,NW,315,21.0,29.0,60,0.00,,,0.00,meteohub,2013-12-10 13:00:00,
2013-12-10 07:06:00,-0.2,-10.8,29.89,West,270,27.0,27.0,60,0.00,,,0.00,meteohub,2013-12-10 13:06:00,
2013-12-10 07:11:00,-0.6,-10.8,29.89,West,270,26.0,27.0,61,0.00,,,0.00,meteohub,2013-12-10 13:11:00,
2013-12-10 07:16:00,-0.8,-11.0,29.89,West,270,25.0,30.0,61,0.00,,,0.00,meteohub,2013-12-10 13:16:00,
2013-12-10 07:21:00,-0.9,-11.2,29.89,West,270,23.0,30.0,61,0.00,,,0.00,meteohub,2013-12-10 13:21:00,
2013-12-10 07:26:00,-0.9,-11.6,29.88,NW,315,24.0,26.0,60,0.00,,,0.00,meteohub,2013-12-10 13:26:00,
2013-12-10 07:31:00,-1.1,-11.6,29.89,SW,225,22.0,26.0,60,0.00,,,0.00,meteohub,2013-12-10 13:31:00,
2013-12-10 07:36:00,-1.1,-11.6,29.90,NW,315,22.0,25.0,60,0.00,,,0.00,meteohub,2013-12-10 13:36:00,
2013-12-10 07:41:00,-1.3,-11.7,29.89,NW,315,23.0,27.0,60,0.00,,,0.00,meteohub,2013-12-10 13:41:00,
2013-12-10 07:46:00,-1.5,-11.9,29.89,NW,315,21.0,27.0,60,0.00,,,0.00,meteohub,2013-12-10 13:46:00,
2013-12-10 07:51:00,-1.5,-11.9,29.90,NW,315,18.0,27.0,60,0.00,,,0.00,meteohub,2013-12-10 13:51:00,
2013-12-10 07:57:00,-1.7,-12.1,29.89,NW,315,16.0,23.0,60,0.00,,,0.00,meteohub,2013-12-10 13:57:00,
2013-12-10 08:02:00,-1.7,-12.1,29.90,West,270,17.0,22.0,60,0.00,,,0.00,meteohub,2013-12-10 14:02:00,
2013-12-10 08:07:00,-1.5,-11.9,29.89,NW,315,17.0,19.0,60,0.00,,,0.00,meteohub,2013-12-10 14:07:00,
2013-12-10 08:12:00,-1.5,-11.9,29.90,NW,315,22.0,22.0,60,0.00,,,0.00,meteohub,2013-12-10 14:12:00,
2013-12-10 08:17:00,-1.3,-11.7,29.90,West,270,22.0,25.0,60,0.00,,,0.00,meteohub,2013-12-10 14:17:00,
2013-12-10 08:22:00,-1.7,-12.1,29.89,West,270,17.0,25.0,60,0.00,,,0.00,meteohub,2013-12-10 14:22:00,
2013-12-10 08:27:00,-1.7,-12.5,29.89,West,270,18.0,23.0,59,0.00,,,0.00,meteohub,2013-12-10 14:27:00,
2013-12-10 08:32:00,-1.7,-12.5,29.89,West,270,21.0,22.0,59,0.00,,,0.00,meteohub,2013-12-10 14:32:00,
2013-12-10 08:37:00,-1.5,-12.3,29.90,West,270,18.0,21.0,59,0.00,,,0.00,meteohub,2013-12-10 14:37:00,
2013-12-10 08:43:00,-1.5,-12.3,29.90,NW,315,19.0,21.0,59,0.00,,,0.00,meteohub,2013-12-10 14:43:00,
2013-12-10 08:48:00,-1.7,-12.5,29.90,NW,315,19.0,21.0,59,0.00,,,0.00,meteohub,2013-12-10 14:48:00,
2013-12-10 08:53:00,-1.5,-12.3,29.90,NW,315,17.0,21.0,59,0.00,,,0.00,meteohub,2013-12-10 14:53:00,
2013-12-10 08:58:00,-1.5,-12.3,29.90,NW,315,19.0,22.0,59,0.00,,,0.00,meteohub,2013-12-10 14:58:00,
2013-12-10 09:04:00,-1.3,-12.1,29.89,NW,315,15.0,22.0,59,0.00,,,0.00,meteohub,2013-12-10 15:04:00,
2013-12-10 09:09:00,-1.3,-12.1,29.90,West,270,15.0,22.0,59,0.00,,,0.00,meteohub,2013-12-10 15:09:00,
2013-12-10 09:14:00,-1.1,-11.9,29.90,West,270,17.0,21.0,59,0.00,,,0.00,meteohub,2013-12-10 15:14:00,
2013-12-10 09:19:00,-0.6,-11.6,29.90,NW,315,16.0,21.0,59,0.00,,,0.00,meteohub,2013-12-10 15:19:00,
2013-12-10 09:24:00,0.0,-11.4,29.92,West,270,15.0,18.0,58,0.00,,,0.00,meteohub,2013-12-10 15:24:00,
2013-12-10 09:29:00,0.0,-11.4,29.92,West,270,15.0,18.0,58,0.00,,,0.00,meteohub,2013-12-10 15:29:00,
2013-12-10 09:35:00,0.5,-10.8,29.92,West,270,15.0,17.0,58,0.00,,,0.00,meteohub,2013-12-10 15:35:00,
2013-12-10 09:40:00,0.9,-10.5,29.93,West,270,17.0,17.0,58,0.00,,,0.00,meteohub,2013-12-10 15:40:00,
2013-12-10 09:45:00,1.2,-10.1,29.93,West,270,17.0,20.0,58,0.00,,,0.00,meteohub,2013-12-10 15:45:00,
2013-12-10 09:50:00,1.8,-8.3,29.93,West,270,16.0,20.0,62,0.00,,,0.00,meteohub,2013-12-10 15:50:00,
2013-12-10 09:55:00,2.1,-8.0,29.94,West,270,20.0,20.0,62,0.00,,,0.00,meteohub,2013-12-10 15:55:00,
2013-12-10 10:00:00,1.9,-8.3,29.94,West,270,16.0,20.0,61,0.00,,,0.00,meteohub,2013-12-10 16:00:00,
2013-12-10 10:06:00,2.1,-8.5,29.94,West,270,22.0,22.0,60,0.00,,,0.00,meteohub,2013-12-10 16:06:00,
2013-12-10 10:11:00,2.1,-8.5,29.94,West,270,19.0,22.0,60,0.00,,,0.00,meteohub,2013-12-10 16:11:00,
2013-12-10 10:16:00,2.1,-8.9,29.95,West,270,17.0,24.0,59,0.00,,,0.00,meteohub,2013-12-10 16:16:00,
2013-12-10 10:21:00,2.3,-8.7,29.95,West,270,17.0,24.0,59,0.00,,,0.00,meteohub,2013-12-10 16:21:00,
2013-12-10 10:27:00,3.0,-8.1,29.96,West,270,16.0,23.0,59,0.00,,,0.00,meteohub,2013-12-10 16:27:00,
2013-12-10 10:32:00,3.9,-7.2,29.95,West,270,17.0,20.0,59,0.00,,,0.00,meteohub,2013-12-10 16:32:00,
2013-12-10 10:38:00,3.7,-7.8,29.95,West,270,15.0,19.0,58,0.00,,,0.00,meteohub,2013-12-10 16:38:00,
2013-12-10 10:43:00,3.4,-8.1,29.95,West,270,17.0,18.0,58,0.00,,,0.00,meteohub,2013-12-10 16:43:00,
2013-12-10 10:48:00,3.6,-8.0,29.95,West,270,18.0,21.0,58,0.00,,,0.00,meteohub,2013-12-10 16:48:00,
2013-12-10 10:53:00,3.7,-7.8,29.96,West,270,17.0,21.0,58,0.00,,,0.00,meteohub,2013-12-10 16:53:00,
2013-12-10 10:59:00,4.1,-7.4,29.96,West,270,14.0,21.0,58,0.00,,,0.00,meteohub,2013-12-10 16:59:00,
2013-12-10 11:04:00,4.8,-6.7,29.96,NW,315,18.0,18.0,58,0.00,,,0.00,meteohub,2013-12-10 17:04:00,
2013-12-10 11:09:00,5.7,-5.8,29.96,West,270,19.0,20.0,58,0.00,,,0.00,meteohub,2013-12-10 17:09:00,
2013-12-10 11:14:00,5.9,-6.0,29.97,West,270,19.0,20.0,57,0.00,,,0.00,meteohub,2013-12-10 17:14:00,
2013-12-10 11:20:00,6.1,-5.8,29.97,West,270,14.0,20.0,57,0.00,,,0.00,meteohub,2013-12-10 17:20:00,
2013-12-10 11:25:00,6.4,-6.0,29.97,West,270,17.0,20.0,56,0.00,,,0.00,meteohub,2013-12-10 17:25:00,
2013-12-10 11:30:00,6.4,-6.0,29.96,West,270,21.0,21.0,56,0.00,,,0.00,meteohub,2013-12-10 17:30:00,
2013-12-10 11:35:00,6.8,-6.0,29.96,West,270,19.0,21.0,55,0.00,,,0.00,meteohub,2013-12-10 17:35:00,
2013-12-10 11:40:00,7.2,-6.0,29.96,NW,315,17.0,21.0,54,0.00,,,0.00,meteohub,2013-12-10 17:40:00,
2013-12-10 11:45:00,7.3,-5.8,29.95,West,270,13.0,20.0,54,0.00,,,0.00,meteohub,2013-12-10 17:45:00,
2013-12-10 11:50:00,7.9,-4.9,29.95,West,270,13.0,19.0,55,0.00,,,0.00,meteohub,2013-12-10 17:50:00,
2013-12-10 11:55:00,8.1,-4.7,29.94,West,270,15.0,17.0,55,0.00,,,0.00,meteohub,2013-12-10 17:55:00,
2013-12-10 12:00:00,8.2,-4.9,29.94,West,270,17.0,18.0,54,0.00,,,0.00,meteohub,2013-12-10 18:00:00,
2013-12-10 12:06:00,8.2,-4.9,29.94,West,270,17.0,18.0,54,0.00,,,0.00,meteohub,2013-12-10 18:06:00,
2013-12-10 12:11:00,8.8,-4.9,29.94,West,270,15.0,18.0,53,0.00,,,0.00,meteohub,2013-12-10 18:11:00,
2013-12-10 12:16:00,9.1,-4.5,29.93,NNW,338,15.0,17.0,53,0.00,,,0.00,meteohub,2013-12-10 18:16:00,
2013-12-10 12:21:00,9.1,-4.5,29.94,NW,315,14.0,17.0,53,0.00,,,0.00,meteohub,2013-12-10 18:21:00,
2013-12-10 12:26:00,10.0,-3.3,29.93,SW,225,15.0,17.0,54,0.00,,,0.00,meteohub,2013-12-10 18:26:00,
2013-12-10 12:32:00,10.6,-1.3,29.94,West,270,17.0,17.0,58,0.00,,,0.00,meteohub,2013-12-10 18:32:00,
2013-12-10 12:37:00,10.6,-1.3,29.93,SW,225,17.0,19.0,58,0.00,,,0.00,meteohub,2013-12-10 18:37:00,
2013-12-10 12:42:00,10.6,-2.0,29.94,West,270,21.0,21.0,56,0.00,,,0.00,meteohub,2013-12-10 18:42:00,
2013-12-10 12:47:00,10.6,-2.4,29.94,West,270,19.0,21.0,55,0.00,,,0.00,meteohub,2013-12-10 18:47:00,
2013-12-10 12:52:00,10.6,-2.4,29.93,West,270,19.0,21.0,55,0.00,,,0.00,meteohub,2013-12-10 18:52:00,
2013-12-10 12:58:00,11.1,-1.8,29.93,West,270,17.0,21.0,55,0.00,,,0.00,meteohub,2013-12-10 18:58:00,
2013-12-10 13:03:00,11.3,-2.2,29.94,SW,225,17.0,21.0,54,0.00,,,0.00,meteohub,2013-12-10 19:03:00,
2013-12-10 13:08:00,11.3,-2.2,29.93,West,270,19.0,21.0,54,0.00,,,0.00,meteohub,2013-12-10 19:08:00,
2013-12-10 13:13:00,10.8,-2.6,29.93,West,270,14.0,21.0,54,0.00,,,0.00,meteohub,2013-12-10 19:13:00,
2013-12-10 13:19:00,11.3,-2.2,29.93,West,270,14.0,23.0,54,0.00,,,0.00,meteohub,2013-12-10 19:19:00,
2013-12-10 13:24:00,11.5,-2.0,29.93,West,270,14.0,23.0,54,0.00,,,0.00,meteohub,2013-12-10 19:24:00,
2013-12-10 13:29:00,11.5,-2.0,29.93,SW,225,15.0,22.0,54,0.00,,,0.00,meteohub,2013-12-10 19:29:00,
2013-12-10 13:34:00,11.5,-2.0,29.93,West,270,15.0,16.0,54,0.00,,,0.00,meteohub,2013-12-10 19:34:00,
2013-12-10 13:39:00,11.1,-2.2,29.92,SW,225,10.0,15.0,54,0.00,,,0.00,meteohub,2013-12-10 19:39:00,
2013-12-10 13:44:00,11.5,-2.0,29.92,West,270,12.0,17.0,54,0.00,,,0.00,meteohub,2013-12-10 19:44:00,
2013-12-10 13:49:00,11.8,-1.7,29.92,West,270,11.0,17.0,54,0.00,,,0.00,meteohub,2013-12-10 19:49:00,
2013-12-10 13:54:00,12.2,-1.7,29.92,West,270,11.0,14.0,53,0.00,,,0.00,meteohub,2013-12-10 19:54:00,
2013-12-10 14:00:00,12.4,-1.5,29.92,West,270,11.0,12.0,53,0.00,,,0.00,meteohub,2013-12-10 20:00:00,
2013-12-10 14:05:00,12.7,-1.1,29.91,West,270,9.0,12.0,53,0.00,,,0.00,meteohub,2013-12-10 20:05:00,
2013-12-10 14:10:00,12.9,-0.9,29.91,West,270,8.0,12.0,53,0.00,,,0.00,meteohub,2013-12-10 20:10:00,
2013-12-10 14:15:00,13.3,-0.6,29.91,SW,225,8.0,11.0,53,0.00,,,0.00,meteohub,2013-12-10 20:15:00,
2013-12-10 14:21:00,13.5,-0.4,29.91,South,180,9.0,10.0,53,0.00,,,0.00,meteohub,2013-12-10 20:21:00,
2013-12-10 14:26:00,13.5,0.0,29.90,SW,225,10.0,10.0,54,0.00,,,0.00,meteohub,2013-12-10 20:26:00,
2013-12-10 14:31:00,13.1,-0.8,29.90,SW,225,11.0,11.0,53,0.00,,,0.00,meteohub,2013-12-10 20:31:00,
2013-12-10 14:36:00,12.9,-0.9,29.90,SW,225,9.0,11.0,53,0.00,,,0.00,meteohub,2013-12-10 20:36:00,
2013-12-10 14:41:00,13.1,-0.4,29.90,WSW,248,10.0,11.0,54,0.00,,,0.00,meteohub,2013-12-10 20:41:00,
2013-12-10 14:47:00,12.7,-0.8,29.90,SW,225,8.0,11.0,54,0.00,,,0.00,meteohub,2013-12-10 20:47:00,
2013-12-10 14:52:00,12.6,-0.9,29.90,South,180,8.0,11.0,54,0.00,,,0.00,meteohub,2013-12-10 20:52:00,
2013-12-10 14:57:00,12.4,-1.1,29.90,SW,225,9.0,11.0,54,0.00,,,0.00,meteohub,2013-12-10 20:57:00,
2013-12-10 15:02:00,11.8,-1.7,29.90,SW,225,9.0,11.0,54,0.00,,,0.00,meteohub,2013-12-10 21:02:00,
2013-12-10 15:07:00,11.5,-2.0,29.91,South,180,11.0,11.0,54,0.00,,,0.00,meteohub,2013-12-10 21:07:00,
2013-12-10 15:12:00,11.1,-2.2,29.90,South,180,11.0,12.0,54,0.00,,,0.00,meteohub,2013-12-10 21:12:00,
2013-12-10 15:18:00,11.1,-1.8,29.90,South,180,11.0,12.0,55,0.00,,,0.00,meteohub,2013-12-10 21:18:00,
2013-12-10 15:23:00,11.3,-1.7,29.91,SW,225,7.0,13.0,55,0.00,,,0.00,meteohub,2013-12-10 21:23:00,
2013-12-10 15:28:00,11.8,-0.8,29.91,West,270,4.0,13.0,56,0.00,,,0.00,meteohub,2013-12-10 21:28:00,
2013-12-10 15:34:00,12.2,-0.9,29.91,SW,225,3.0,11.0,55,0.00,,,0.00,meteohub,2013-12-10 21:34:00,
2013-12-10 15:39:00,12.6,-0.6,29.90,SW,225,4.0,8.0,55,0.00,,,0.00,meteohub,2013-12-10 21:39:00,
2013-12-10 15:42:00,12.6,-0.6,29.91,SW,225,4.0,4.0,55,0.00,,,0.00,meteohub,2013-12-10 21:42:00,
2013-12-10 15:44:00,12.4,-0.8,29.91,South,180,5.0,5.0,55,0.00,,,0.00,meteohub,2013-12-10 21:44:00,
2013-12-10 15:50:00,12.0,-0.6,29.91,SW,225,6.0,6.0,56,0.00,,,0.00,meteohub,2013-12-10 21:50:00,
2013-12-10 15:55:00,11.8,-0.8,29.92,South,180,6.0,7.0,56,0.00,,,0.00,meteohub,2013-12-10 21:55:00,
2013-12-10 16:00:00,11.5,-1.1,29.91,SW,225,5.0,8.0,56,0.00,,,0.00,meteohub,2013-12-10 22:00:00,
2013-12-10 16:06:00,11.3,-1.3,29.91,WSW,248,6.0,8.0,56,0.00,,,0.00,meteohub,2013-12-10 22:06:00,
2013-12-10 16:11:00,11.3,-0.9,29.91,SW,225,7.0,7.0,57,0.00,,,0.00,meteohub,2013-12-10 22:11:00,
2013-12-10 16:16:00,11.1,-1.1,29.92,SW,225,9.0,9.0,57,0.00,,,0.00,meteohub,2013-12-10 22:16:00,
2013-12-10 16:22:00,10.9,-1.3,29.92,South,180,7.0,9.0,57,0.00,,,0.00,meteohub,2013-12-10 22:22:00,
2013-12-10 16:27:00,10.8,-1.5,29.92,South,180,6.0,9.0,57,0.00,,,0.00,meteohub,2013-12-10 22:27:00,
2013-12-10 16:32:00,10.6,-1.7,29.92,SW,225,5.0,9.0,57,0.00,,,0.00,meteohub,2013-12-10 22:32:00,
2013-12-10 16:37:00,10.4,-1.5,29.92,SW,225,6.0,8.0,58,0.00,,,0.00,meteohub,2013-12-10 22:37:00,
2013-12-10 16:43:00,10.8,-1.1,29.92,SW,225,5.0,6.0,58,0.00,,,0.00,meteohub,2013-12-10 22:43:00,
2013-12-10 16:48:00,11.1,-0.4,29.92,SW,225,6.0,6.0,59,0.00,,,0.00,meteohub,2013-12-10 22:48:00,
2013-12-10 16:53:00,11.1,-0.4,29.92,SW,225,8.0,8.0,59,0.00,,,0.00,meteohub,2013-12-10 22:53:00,
2013-12-10 16:58:00,11.3,-0.2,29.92,West,270,7.0,8.0,59,0.00,,,0.00,meteohub,2013-12-10 22:58:00,
2013-12-10 17:03:00,11.3,0.1,29.92,SW,225,6.0,8.0,60,0.00,,,0.00,meteohub,2013-12-10 23:03:00,
2013-12-10 17:08:00,11.5,0.3,29.93,NW,315,5.0,8.0,60,0.00,,,0.00,meteohub,2013-12-10 23:08:00,
2013-12-10 17:13:00,11.5,0.3,29.92,SW,225,5.0,8.0,60,0.00,,,0.00,meteohub,2013-12-10 23:13:00,
2013-12-10 17:18:00,11.5,0.3,29.92,SW,225,7.0,8.0,60,0.00,,,0.00,meteohub,2013-12-10 23:18:00,
2013-12-10 17:24:00,11.5,0.7,29.93,SW,225,6.0,7.0,61,0.00,,,0.00,meteohub,2013-12-10 23:24:00,
2013-12-10 17:29:00,11.5,0.7,29.92,West,270,7.0,7.0,61,0.00,,,0.00,meteohub,2013-12-10 23:29:00,
2013-12-10 17:34:00,11.7,0.9,29.92,SW,225,8.0,8.0,61,0.00,,,0.00,meteohub,2013-12-10 23:34:00,
2013-12-10 17:39:00,11.7,1.2,29.93,SW,225,6.0,8.0,62,0.00,,,0.00,meteohub,2013-12-10 23:39:00,
2013-12-10 17:45:00,11.7,1.2,29.93,SW,225,6.0,9.0,62,0.00,,,0.00,meteohub,2013-12-10 23:45:00,
2013-12-10 17:50:00,11.7,1.2,29.93,West,270,7.0,9.0,62,0.00,,,0.00,meteohub,2013-12-10 23:50:00,
2013-12-10 17:56:00,11.7,1.2,29.94,WSW,248,7.0,7.0,62,0.00,,,0.00,meteohub,2013-12-10 23:56:00,
2013-12-10 18:01:00,11.5,1.0,29.94,West,270,7.0,7.0,62,0.00,,,0.00,meteohub,2013-12-11 00:01:00,
2013-12-10 18:06:00,11.5,1.0,29.95,SW,225,7.0,7.0,62,0.00,,,0.00,meteohub,2013-12-11 00:06:00,
2013-12-10 18:11:00,11.5,1.0,29.95,WSW,248,7.0,7.0,62,0.00,,,0.00,meteohub,2013-12-11 00:11:00,
2013-12-10 18:17:00,11.5,1.0,29.95,West,270,6.0,8.0,62,0.00,,,0.00,meteohub,2013-12-11 00:17:00,
2013-12-10 18:23:00,11.5,1.0,29.95,SW,225,7.0,8.0,62,0.00,,,0.00,meteohub,2013-12-11 00:23:00,
2013-12-10 18:28:00,11.5,1.0,29.95,West,270,4.0,8.0,62,0.00,,,0.00,meteohub,2013-12-11 00:28:00,
2013-12-10 18:34:00,11.5,1.4,29.95,SW,225,7.0,8.0,63,0.00,,,0.00,meteohub,2013-12-11 00:34:00,
2013-12-10 18:39:00,11.7,1.6,29.96,West,270,6.0,8.0,63,0.00,,,0.00,meteohub,2013-12-11 00:39:00,
2013-12-10 18:44:00,11.7,1.6,29.96,SW,225,6.0,8.0,63,0.00,,,0.00,meteohub,2013-12-11 00:44:00,
2013-12-10 18:49:00,11.7,1.6,29.97,West,270,3.0,7.0,63,0.00,,,0.00,meteohub,2013-12-11 00:49:00,
2013-12-10 18:55:00,11.7,1.6,29.97,SW,225,3.0,6.0,63,0.00,,,0.00,meteohub,2013-12-11 00:55:00,
2013-12-10 19:00:00,11.7,1.6,29.97,West,270,4.0,6.0,63,0.00,,,0.00,meteohub,2013-12-11 01:00:00,
2013-12-10 19:06:00,11.8,1.8,29.97,West,270,7.0,7.0,63,0.00,,,0.00,meteohub,2013-12-11 01:06:00,
2013-12-10 19:11:00,12.0,1.8,29.97,SW,225,8.0,8.0,63,0.00,,,0.00,meteohub,2013-12-11 01:11:00,
2013-12-10 19:17:00,12.2,1.9,29.97,West,270,7.0,8.0,63,0.00,,,0.00,meteohub,2013-12-11 01:17:00,
2013-12-10 19:22:00,12.6,2.3,29.98,West,270,7.0,8.0,63,0.00,,,0.00,meteohub,2013-12-11 01:22:00,
2013-12-10 19:27:00,12.6,2.3,29.97,West,270,8.0,8.0,63,0.00,,,0.00,meteohub,2013-12-11 01:27:00,
2013-12-10 19:32:00,12.7,2.5,29.98,West,270,8.0,9.0,63,0.00,,,0.00,meteohub,2013-12-11 01:32:00,
2013-12-10 19:37:00,12.7,2.8,29.98,West,270,7.0,10.0,64,0.00,,,0.00,meteohub,2013-12-11 01:37:00,
2013-12-10 19:43:00,12.7,2.8,29.99,SW,225,8.0,10.0,64,0.00,,,0.00,meteohub,2013-12-11 01:43:00,
2013-12-10 19:48:00,12.7,2.8,29.99,West,270,8.0,10.0,64,0.00,,,0.00,meteohub,2013-12-11 01:48:00,
2013-12-10 19:53:00,12.9,3.0,29.99,West,270,8.0,8.0,64,0.00,,,0.00,meteohub,2013-12-11 01:53:00,
2013-12-10 19:58:00,13.1,3.6,29.99,West,270,10.0,10.0,65,0.00,,,0.00,meteohub,2013-12-11 01:58:00,
2013-12-10 20:03:00,13.3,3.7,29.99,West,270,15.0,15.0,65,0.00,,,0.00,meteohub,2013-12-11 02:03:00,
2013-12-10 20:09:00,13.6,4.5,30.00,West,270,13.0,13.0,66,0.00,,,0.00,meteohub,2013-12-11 02:09:00,
2013-12-10 20:14:00,14.0,4.5,30.00,West,270,15.0,15.0,65,0.00,,,0.00,meteohub,2013-12-11 02:14:00,
2013-12-10 20:19:00,14.4,5.0,30.01,West,270,13.0,16.0,66,0.00,,,0.00,meteohub,2013-12-11 02:19:00,
2013-12-10 20:24:00,14.5,5.5,30.01,NW,315,19.0,19.0,67,0.00,,,0.00,meteohub,2013-12-11 02:24:00,
2013-12-10 20:29:00,14.5,5.5,30.01,NW,315,15.0,18.0,67,0.00,,,0.00,meteohub,2013-12-11 02:29:00,
2013-12-10 20:35:00,14.5,5.5,30.02,West,270,20.0,20.0,67,0.00,,,0.00,meteohub,2013-12-11 02:35:00,
2013-12-10 20:40:00,14.5,5.2,30.02,NW,315,19.0,19.0,66,0.00,,,0.00,meteohub,2013-12-11 02:40:00,
2013-12-10 20:45:00,14.5,5.0,30.02,NW,315,19.0,21.0,65,0.00,,,0.00,meteohub,2013-12-11 02:45:00,
2013-12-10 20:50:00,14.5,5.0,30.03,NW,315,17.0,23.0,65,0.00,,,0.00,meteohub,2013-12-11 02:50:00,
2013-12-10 20:56:00,14.4,4.8,30.04,West,270,19.0,23.0,65,0.00,,,0.00,meteohub,2013-12-11 02:56:00,
2013-12-10 21:01:00,14.4,4.8,30.04,NW,315,25.0,25.0,65,0.00,,,0.00,meteohub,2013-12-11 03:01:00,
2013-12-10 21:02:00,14.4,4.8,30.04,NW,315,23.0,23.0,65,0.00,,,0.00,meteohub,2013-12-11 03:02:00,
2013-12-10 21:06:00,14.0,4.5,30.04,NW,315,25.0,32.0,65,0.00,,,0.00,meteohub,2013-12-11 03:06:00,
2013-12-10 21:12:00,12.7,3.6,30.04,NW,315,30.0,33.0,66,0.00,,,0.00,meteohub,2013-12-11 03:12:00,
2013-12-10 21:17:00,12.2,2.3,30.06,North,0,31.0,33.0,64,0.00,,,0.00,meteohub,2013-12-11 03:17:00,
2013-12-10 21:22:00,11.5,1.8,30.06,NW,315,31.0,34.0,64,0.00,,,0.00,meteohub,2013-12-11 03:22:00,
2013-12-10 21:28:00,10.9,0.9,30.08,NW,315,32.0,35.0,63,0.00,,,0.00,meteohub,2013-12-11 03:28:00,
2013-12-10 21:33:00,9.9,-1.7,30.08,North,0,29.0,35.0,59,0.00,,,0.00,meteohub,2013-12-11 03:33:00,
2013-12-10 21:39:00,9.0,-2.4,30.09,NW,315,30.0,35.0,59,0.00,,,0.00,meteohub,2013-12-11 03:39:00,
2013-12-10 21:44:00,8.1,-3.3,30.09,NW,315,30.0,35.0,59,0.00,,,0.00,meteohub,2013-12-11 03:44:00,
2013-12-10 21:49:00,7.3,-4.0,30.10,WNW,293,31.0,35.0,59,0.00,,,0.00,meteohub,2013-12-11 03:49:00,
2013-12-10 21:54:00,6.8,-4.5,30.10,NW,315,34.0,35.0,59,0.00,,,0.00,meteohub,2013-12-11 03:54:00,
2013-12-10 21:59:00,6.4,-4.9,30.11,North,0,27.0,34.0,59,0.00,,,0.00,meteohub,2013-12-11 03:59:00,
2013-12-10 22:04:00,6.1,-5.4,30.12,NNW,338,31.0,35.0,58,0.00,,,0.00,meteohub,2013-12-11 04:04:00,
2013-12-10 22:10:00,5.9,-6.0,30.12,WNW,293,25.0,36.0,57,0.00,,,0.00,meteohub,2013-12-11 04:10:00,
2013-12-10 22:15:00,5.7,-6.2,30.12,North,0,23.0,36.0,57,0.00,,,0.00,meteohub,2013-12-11 04:15:00,
2013-12-10 22:21:00,5.5,-6.3,30.13,NW,315,24.0,31.0,57,0.00,,,0.00,meteohub,2013-12-11 04:21:00,
2013-12-10 22:26:00,5.2,-6.7,30.13,WNW,293,20.0,28.0,57,0.00,,,0.00,meteohub,2013-12-11 04:26:00,
2013-12-10 22:31:00,5.0,-6.9,30.14,North,0,22.0,27.0,57,0.00,,,0.00,meteohub,2013-12-11 04:31:00,
2013-12-10 22:36:00,4.8,-6.7,30.14,NW,315,24.0,25.0,58,0.00,,,0.00,meteohub,2013-12-11 04:36:00,
2013-12-10 22:42:00,4.5,-7.4,30.15,North,0,17.0,24.0,57,0.00,,,0.00,meteohub,2013-12-11 04:42:00,
2013-12-10 22:47:00,4.1,-7.8,30.15,NW,315,21.0,24.0,57,0.00,,,0.00,meteohub,2013-12-11 04:47:00,
2013-12-10 22:52:00,3.9,-7.6,30.15,NW,315,18.0,24.0,58,0.00,,,0.00,meteohub,2013-12-11 04:52:00,
2013-12-10 22:57:00,3.6,-8.0,30.16,NW,315,18.0,21.0,58,0.00,,,0.00,meteohub,2013-12-11 04:57:00,
2013-12-10 23:01:00,3.6,-8.0,30.16,NW,315,19.0,23.0,58,0.00,,,0.00,meteohub,2013-12-11 05:01:00,
2013-12-10 23:02:00,3.4,-8.1,30.16,NW,315,18.0,23.0,58,0.00,,,0.00,meteohub,2013-12-11 05:02:00,
2013-12-10 23:03:00,3.4,-8.1,30.16,NW,315,23.0,23.0,58,0.00,,,0.00,meteohub,2013-12-11 05:03:00,
2013-12-10 23:08:00,3.2,-8.3,30.16,North,0,23.0,23.0,58,0.00,,,0.00,meteohub,2013-12-11 05:08:00,
2013-12-10 23:13:00,3.0,-8.1,30.17,West,270,22.0,26.0,59,0.00,,,0.00,meteohub,2013-12-11 05:13:00,
2013-12-10 23:18:00,2.8,-8.3,30.18,North,0,23.0,29.0,59,0.00,,,0.00,meteohub,2013-12-11 05:18:00,
2013-12-10 23:23:00,2.7,-8.3,30.18,NW,315,17.0,29.0,59,0.00,,,0.00,meteohub,2013-12-11 05:23:00,
2013-12-10 23:28:00,2.1,-8.9,30.18,NW,315,17.0,29.0,59,0.00,,,0.00,meteohub,2013-12-11 05:28:00,
2013-12-10 23:33:00,1.9,-8.7,30.19,NW,315,17.0,24.0,60,0.00,,,0.00,meteohub,2013-12-11 05:33:00,
2013-12-10 23:38:00,1.6,-9.0,30.19,NW,315,20.0,22.0,60,0.00,,,0.00,meteohub,2013-12-11 05:38:00,
2013-12-10 23:44:00,1.4,-9.2,30.19,West,270,18.0,22.0,60,0.00,,,0.00,meteohub,2013-12-11 05:44:00,
2013-12-10 23:49:00,1.0,-11.0,30.20,NW,315,18.0,22.0,56,0.00,,,0.00,meteohub,2013-12-11 05:49:00,
2013-12-10 23:54:00,0.9,-11.2,30.20,NW,315,21.0,22.0,56,0.00,,,0.00,meteohub,2013-12-11 05:54:00,
2013-12-10 23:59:00,0.7,-11.0,30.20,NW,315,17.0,21.0,57,0.00,,,0.00,meteohub,2013-12-11 05:59:00,